createdAt,value
2023-03-23T00:01:23.344Z,9.30
2023-03-23T00:04:33.362Z,9.18
2023-03-23T00:07:39.578Z,9.16
2023-03-23T00:10:46.273Z,9.15
2023-03-23T00:13:55.169Z,9.16
2023-03-23T00:17:01.764Z,9.14
2023-03-23T00:20:13.134Z,9.20
2023-03-23T00:23:22.061Z,9.07
2023-03-23T00:26:29.806Z,9.08
2023-03-23T00:29:56.730Z,9.09
2023-03-23T00:33:02.586Z,9.08
2023-03-23T00:36:14.261Z,9.00
2023-03-23T00:39:20.976Z,8.93
2023-03-23T00:42:29.842Z,8.79
2023-03-23T00:45:36.137Z,8.75
2023-03-23T00:48:46.095Z,8.80
2023-03-23T00:51:55.895Z,8.78
2023-03-23T00:55:03.414Z,8.75
2023-03-23T00:58:09.049Z,8.62
2023-03-23T01:01:17.180Z,8.69
2023-03-23T01:04:23.410Z,8.62
2023-03-23T01:07:32.997Z,8.58
2023-03-23T01:10:40.868Z,8.60
2023-03-23T01:13:48.393Z,8.59
2023-03-23T01:16:53.998Z,8.65
2023-03-23T01:20:00.743Z,8.74
2023-03-23T01:23:09.956Z,8.77
2023-03-23T01:26:21.231Z,8.80
2023-03-23T01:29:27.084Z,8.72
2023-03-23T01:32:33.789Z,8.88
2023-03-23T01:35:42.910Z,8.88
2023-03-23T01:38:55.276Z,8.92
2023-03-23T01:42:01.072Z,8.92
2023-03-23T01:45:33.684Z,8.91
2023-03-23T01:48:43.223Z,8.93
2023-03-23T01:51:57.442Z,8.89
2023-03-23T01:55:08.660Z,8.90
2023-03-23T01:58:17.170Z,8.93
2023-03-23T02:01:26.173Z,8.90
2023-03-23T02:04:37.774Z,8.88
2023-03-23T02:07:44.525Z,8.87
2023-03-23T02:10:54.063Z,8.89
2023-03-23T02:14:00.418Z,8.90
2023-03-23T02:17:15.208Z,8.57
2023-03-23T02:21:01.011Z,8.86
2023-03-23T02:25:01.441Z,8.88
2023-03-23T02:28:56.285Z,8.94
2023-03-23T02:32:20.756Z,8.96
2023-03-23T02:35:40.234Z,8.89
2023-03-23T02:39:01.652Z,8.87
2023-03-23T02:42:13.521Z,8.80
2023-03-23T02:45:27.464Z,8.84
2023-03-23T02:48:35.884Z,8.77
2023-03-23T02:51:52.402Z,8.84
2023-03-23T02:55:03.025Z,8.82
2023-03-23T02:58:10.438Z,8.84
2023-03-23T03:02:02.018Z,8.90
2023-03-23T03:05:26.722Z,8.91
2023-03-23T03:08:50.595Z,8.80
2023-03-23T03:12:12.479Z,8.81
2023-03-23T03:15:33.044Z,8.79
2023-03-23T03:18:52.461Z,8.79
2023-03-23T03:22:03.934Z,8.77
2023-03-23T03:25:21.759Z,8.74
2023-03-23T03:28:30.051Z,8.74
2023-03-23T03:31:46.516Z,8.80
2023-03-23T03:34:53.665Z,8.75
2023-03-23T03:38:01.834Z,8.75
2023-03-23T03:41:10.554Z,8.82
2023-03-23T03:44:17.997Z,8.52
2023-03-23T03:47:23.783Z,8.87
2023-03-23T03:50:30.767Z,8.90
2023-03-23T03:53:37.366Z,8.86
2023-03-23T03:56:48.016Z,8.85
2023-03-23T04:00:41.437Z,8.82
2023-03-23T04:03:49.216Z,8.83
2023-03-23T04:07:06.496Z,8.82
2023-03-23T04:10:16.050Z,8.86
2023-03-23T04:13:42.475Z,8.85
2023-03-23T04:17:00.289Z,8.90
2023-03-23T04:20:08.714Z,8.91
2023-03-23T04:23:15.518Z,8.88
2023-03-23T04:26:23.559Z,8.89
2023-03-23T04:29:35.300Z,8.85
2023-03-23T04:32:45.021Z,8.82
2023-03-23T04:35:56.623Z,8.86
2023-03-23T04:39:12.709Z,8.84
2023-03-23T04:42:19.811Z,8.75
2023-03-23T04:45:47.266Z,8.77
2023-03-23T04:48:56.307Z,8.82
2023-03-23T04:52:07.254Z,8.76
2023-03-23T04:55:23.899Z,8.83
2023-03-23T04:58:36.227Z,8.87
2023-03-23T05:02:14.612Z,8.83
2023-03-23T05:05:26.217Z,8.84
2023-03-23T05:08:35.479Z,8.86
2023-03-23T05:11:41.355Z,8.89
2023-03-23T05:14:48.369Z,8.82
2023-03-23T05:18:00.519Z,8.92
2023-03-23T05:21:08.436Z,8.97
2023-03-23T05:24:19.052Z,9.00
2023-03-23T05:27:31.554Z,9.02
2023-03-23T05:30:45.513Z,9.11
2023-03-23T05:33:56.899Z,9.18
2023-03-23T05:37:11.007Z,9.25
2023-03-23T05:40:31.463Z,9.36
2023-03-23T05:43:47.454Z,9.35
2023-03-23T05:46:54.393Z,9.48
2023-03-23T05:50:03.821Z,9.58
2023-03-23T05:53:12.627Z,9.67
2023-03-23T05:56:19.670Z,9.79
2023-03-23T05:59:44.463Z,9.78
2023-03-23T06:03:00.585Z,9.89
2023-03-23T06:06:17.809Z,9.91
2023-03-23T06:09:42.404Z,9.99
2023-03-23T06:13:05.265Z,10.07
2023-03-23T06:16:17.595Z,10.20
2023-03-23T06:19:33.507Z,10.29
2023-03-23T06:22:49.317Z,10.35
2023-03-23T06:26:10.122Z,10.43
2023-03-23T06:29:18.455Z,10.48
2023-03-23T06:32:33.561Z,10.56
2023-03-23T06:35:41.063Z,10.60
2023-03-23T06:39:05.513Z,10.68
2023-03-23T06:42:28.326Z,10.72
2023-03-23T06:45:55.591Z,10.84
2023-03-23T06:49:16.515Z,10.97
2023-03-23T06:52:31.141Z,11.05
2023-03-23T06:55:40.542Z,11.03
2023-03-23T06:58:48.136Z,11.09
2023-03-23T07:01:54.137Z,11.17
2023-03-23T07:05:01.716Z,11.26
2023-03-23T07:08:09.006Z,11.34
2023-03-23T07:11:33.876Z,11.41
2023-03-23T07:14:45.465Z,11.41
2023-03-23T07:17:53.021Z,11.42
2023-03-23T07:21:11.820Z,11.46
2023-03-23T07:24:20.786Z,11.52
2023-03-23T07:27:43.093Z,11.55
2023-03-23T07:30:50.438Z,11.60
2023-03-23T07:33:56.869Z,11.60
2023-03-23T07:37:09.411Z,11.68
2023-03-23T07:40:19.355Z,11.72
2023-03-23T07:43:34.494Z,11.78
2023-03-23T07:46:58.972Z,11.86
2023-03-23T07:50:13.819Z,11.95
2023-03-23T07:53:22.713Z,11.91
2023-03-23T07:56:36.667Z,11.91
2023-03-23T07:59:54.143Z,12.06
2023-03-23T08:03:03.988Z,12.10
2023-03-23T08:06:16.712Z,12.11
2023-03-23T08:10:14.798Z,12.04
2023-03-23T08:13:40.667Z,12.05
2023-03-23T08:16:56.575Z,12.01
2023-03-23T08:20:18.405Z,11.94
2023-03-23T08:24:09.509Z,12.02
2023-03-23T08:27:32.055Z,12.09
2023-03-23T08:31:28.675Z,12.14
2023-03-23T08:34:54.417Z,12.20
2023-03-23T08:38:57.004Z,12.29
2023-03-23T08:42:30.572Z,12.33
2023-03-23T08:45:40.760Z,12.44
2023-03-23T08:49:19.145Z,12.62
2023-03-23T08:53:22.120Z,12.84
2023-03-23T08:56:28.678Z,12.90
2023-03-23T08:59:44.076Z,13.11
2023-03-23T09:03:11.555Z,13.30
2023-03-23T09:06:40.822Z,13.35
2023-03-23T09:09:49.890Z,13.61
2023-03-23T09:12:58.610Z,13.82
2023-03-23T09:16:05.360Z,13.88
2023-03-23T09:19:14.136Z,13.91
2023-03-23T09:22:24.540Z,13.87
2023-03-23T09:25:35.131Z,13.93
2023-03-23T09:28:41.109Z,13.99
2023-03-23T09:31:47.977Z,13.98
2023-03-23T09:34:56.533Z,13.98
2023-03-23T09:38:04.392Z,14.04
2023-03-23T09:41:38.366Z,14.08
2023-03-23T09:45:07.276Z,14.17
2023-03-23T09:48:42.497Z,14.20
2023-03-23T09:51:56.859Z,14.21
2023-03-23T09:55:04.061Z,14.30
2023-03-23T09:58:29.194Z,14.36
2023-03-23T10:01:44.021Z,14.32
2023-03-23T10:04:54.436Z,14.47
2023-03-23T10:08:01.311Z,14.67
2023-03-23T10:11:16.737Z,14.83
2023-03-23T10:14:42.017Z,14.79
2023-03-23T10:17:58.576Z,14.86
2023-03-23T10:21:06.307Z,14.68
2023-03-23T10:24:19.696Z,14.90
2023-03-23T10:27:37.853Z,14.99
2023-03-23T10:30:55.876Z,15.06
2023-03-23T10:34:13.216Z,15.28
2023-03-23T10:37:29.165Z,15.49
2023-03-23T10:40:36.792Z,15.36
2023-03-23T10:43:44.463Z,15.16
2023-03-23T10:47:04.177Z,15.23
2023-03-23T10:50:21.430Z,15.22
2023-03-23T10:53:36.736Z,15.04
2023-03-23T10:56:58.825Z,14.21
2023-03-23T11:00:11.692Z,14.49
2023-03-23T11:03:43.782Z,14.80
2023-03-23T11:06:55.422Z,14.58
2023-03-23T11:10:20.610Z,14.60
2023-03-23T11:13:34.047Z,14.59
2023-03-23T11:16:49.664Z,14.78
2023-03-23T11:19:58.800Z,14.68
2023-03-23T11:23:06.478Z,14.53
2023-03-23T11:26:19.892Z,14.60
2023-03-23T11:29:30.637Z,14.73
2023-03-23T11:32:37.401Z,14.71
2023-03-23T11:35:50.584Z,14.71
2023-03-23T11:39:06.376Z,14.67
2023-03-23T11:42:23.933Z,14.73
2023-03-23T11:45:38.978Z,14.86
2023-03-23T11:48:59.998Z,14.92
2023-03-23T11:52:26.954Z,15.02
2023-03-23T11:56:00.299Z,15.08
2023-03-23T11:59:07.964Z,15.13
2023-03-23T12:02:46.641Z,15.14
2023-03-23T12:06:17.520Z,15.18
2023-03-23T12:09:48.212Z,15.41
2023-03-23T12:13:20.750Z,15.52
2023-03-23T12:16:46.610Z,15.71
2023-03-23T12:20:16.049Z,16.01
2023-03-23T12:23:33.647Z,16.09
2023-03-23T12:26:55.438Z,16.35
2023-03-23T12:30:23.930Z,16.36
2023-03-23T12:33:50.037Z,16.41
2023-03-23T12:37:23.875Z,16.68
2023-03-23T12:40:53.830Z,16.44
2023-03-23T12:44:14.465Z,16.52
2023-03-23T12:47:40.948Z,16.28
2023-03-23T12:51:12.396Z,16.10
2023-03-23T12:54:30.844Z,15.86
2023-03-23T12:57:45.998Z,15.75
2023-03-23T13:01:05.702Z,15.70
2023-03-23T13:04:20.190Z,15.63
2023-03-23T13:07:34.972Z,15.63
2023-03-23T13:10:49.747Z,15.60
2023-03-23T13:14:03.622Z,15.56
2023-03-23T13:17:29.106Z,15.57
2023-03-23T13:21:04.567Z,15.57
2023-03-23T13:24:25.445Z,15.56
2023-03-23T13:27:33.817Z,15.54
2023-03-23T13:30:40.468Z,15.52
2023-03-23T13:34:02.095Z,15.57
2023-03-23T13:37:16.624Z,15.36
2023-03-23T13:40:33.032Z,15.80
2023-03-23T13:43:42.905Z,15.89
2023-03-23T13:47:00.832Z,16.12
2023-03-23T13:50:30.910Z,16.21
2023-03-23T13:53:50.596Z,16.23
2023-03-23T13:57:02.311Z,16.04
2023-03-23T14:00:39.885Z,16.32
2023-03-23T14:03:54.441Z,16.36
2023-03-23T14:07:16.200Z,16.44
2023-03-23T14:10:23.134Z,16.41
2023-03-23T14:13:37.977Z,16.42
2023-03-23T14:16:47.756Z,15.96
2023-03-23T14:19:57.379Z,16.28
2023-03-23T14:23:24.081Z,16.17
2023-03-23T14:26:29.861Z,16.05
2023-03-23T14:29:36.750Z,15.91
2023-03-23T14:32:42.861Z,15.86
2023-03-23T14:35:50.636Z,15.87
2023-03-23T14:39:22.684Z,15.85
2023-03-23T14:42:35.777Z,15.83
2023-03-23T14:45:43.604Z,15.84
2023-03-23T14:48:50.568Z,15.93
2023-03-23T14:51:58.979Z,15.90
2023-03-23T14:55:18.803Z,15.83
2023-03-23T14:58:27.699Z,15.78
2023-03-23T15:01:39.808Z,15.72
2023-03-23T15:04:51.878Z,15.78
2023-03-23T15:08:07.731Z,15.47
2023-03-23T15:11:32.888Z,15.86
2023-03-23T15:14:51.747Z,15.95
2023-03-23T15:17:59.020Z,15.94
2023-03-23T15:21:22.982Z,15.94
2023-03-23T15:24:40.906Z,15.91
2023-03-23T15:27:57.372Z,15.92
2023-03-23T15:31:10.580Z,15.88
2023-03-23T15:34:30.007Z,15.87
2023-03-23T15:37:47.041Z,15.90
2023-03-23T15:40:57.178Z,15.98
2023-03-23T15:44:16.745Z,15.93
2023-03-23T15:47:25.466Z,15.99
2023-03-23T15:50:39.737Z,15.90
2023-03-23T15:53:47.166Z,15.97
2023-03-23T15:56:53.184Z,15.93
2023-03-23T16:00:02.917Z,15.89
2023-03-23T16:03:28.018Z,14.74
2023-03-23T16:06:39.011Z,15.72
2023-03-23T16:09:46.440Z,15.69
2023-03-23T16:12:53.943Z,15.60
2023-03-23T16:16:03.306Z,15.48
2023-03-23T16:19:10.489Z,15.44
2023-03-23T16:22:17.258Z,15.38
2023-03-23T16:25:25.399Z,15.28
2023-03-23T16:28:31.177Z,15.19
2023-03-23T16:31:40.729Z,15.12
2023-03-23T16:34:46.661Z,15.04
2023-03-23T16:38:07.008Z,15.06
2023-03-23T16:41:14.269Z,14.96
2023-03-23T16:44:21.179Z,14.87
2023-03-23T16:47:29.729Z,14.87
2023-03-23T16:50:37.492Z,14.88
2023-03-23T16:53:43.320Z,14.90
2023-03-23T16:56:49.868Z,14.90
2023-03-23T16:59:58.800Z,14.90
2023-03-23T17:03:08.534Z,14.92
2023-03-23T17:06:14.647Z,14.90
2023-03-23T17:09:21.825Z,14.87
2023-03-23T17:12:30.610Z,14.69
2023-03-23T17:15:41.016Z,14.72
2023-03-23T17:18:49.639Z,14.74
2023-03-23T17:21:56.199Z,14.66
2023-03-23T17:25:02.527Z,14.75
2023-03-23T17:28:09.538Z,14.67
2023-03-23T17:31:15.380Z,14.63
2023-03-23T17:34:25.155Z,14.51
2023-03-23T17:37:30.884Z,14.51
2023-03-23T17:40:37.549Z,14.39
2023-03-23T17:43:44.048Z,14.42
2023-03-23T17:46:50.585Z,14.41
2023-03-23T17:49:59.189Z,14.37
2023-03-23T17:53:05.857Z,14.40
2023-03-23T17:56:13.315Z,14.39
2023-03-23T17:59:19.989Z,14.33
2023-03-23T18:02:25.913Z,14.28
2023-03-23T18:05:35.298Z,14.30
2023-03-23T18:08:42.211Z,14.22
2023-03-23T18:11:49.511Z,14.21
2023-03-23T18:14:59.874Z,14.23
2023-03-23T18:18:08.807Z,14.19
2023-03-23T18:21:17.714Z,14.15
2023-03-23T18:24:24.614Z,14.17
2023-03-23T18:27:30.870Z,14.12
2023-03-23T18:30:38.814Z,13.85
2023-03-23T18:33:47.089Z,14.03
2023-03-23T18:36:56.780Z,13.97
2023-03-23T18:40:02.677Z,13.93
2023-03-23T18:43:10.058Z,13.94
2023-03-23T18:46:16.756Z,13.93
2023-03-23T18:49:24.075Z,13.95
2023-03-23T18:52:34.342Z,14.04
2023-03-23T18:55:41.502Z,14.07
2023-03-23T18:58:49.061Z,14.09
2023-03-23T19:01:55.907Z,14.07
2023-03-23T19:05:02.125Z,14.10
2023-03-23T19:08:13.816Z,14.14
2023-03-23T19:11:21.399Z,13.99
2023-03-23T19:14:28.412Z,14.21
2023-03-23T19:17:34.369Z,14.22
2023-03-23T19:21:09.437Z,14.19
2023-03-23T19:24:12.146Z,14.24
2023-03-23T19:27:21.050Z,14.21
2023-03-23T19:30:27.380Z,14.18
2023-03-23T19:33:34.131Z,14.17
2023-03-23T19:36:40.904Z,14.14
2023-03-23T19:39:50.551Z,14.14
2023-03-23T19:42:57.489Z,14.12
2023-03-23T19:46:04.599Z,14.04
2023-03-23T19:49:10.973Z,14.11
2023-03-23T19:52:18.872Z,14.08
2023-03-23T19:55:28.414Z,14.08
2023-03-23T19:58:35.466Z,14.06
2023-03-23T20:01:41.629Z,13.99
2023-03-23T20:04:49.795Z,14.04
2023-03-23T20:07:57.391Z,14.08
2023-03-23T20:11:13.547Z,14.04
2023-03-23T20:14:20.863Z,14.02
2023-03-23T20:17:28.678Z,14.00
2023-03-23T20:20:36.800Z,14.04
2023-03-23T20:23:46.884Z,14.04
2023-03-23T20:26:56.228Z,14.01
2023-03-23T20:30:04.388Z,13.97
2023-03-23T20:33:10.952Z,13.94
2023-03-23T20:36:20.201Z,13.89
2023-03-23T20:39:26.486Z,13.81
2023-03-23T20:42:36.262Z,13.74
2023-03-23T20:45:42.910Z,13.63
2023-03-23T20:48:50.866Z,13.69
2023-03-23T20:51:57.069Z,13.69
2023-03-23T20:55:04.265Z,13.66
2023-03-23T20:58:13.336Z,13.71
2023-03-23T21:01:21.874Z,13.70
2023-03-23T21:04:30.534Z,13.67
2023-03-23T21:07:37.378Z,13.64
2023-03-23T21:10:44.138Z,13.67
2023-03-23T21:13:54.085Z,13.68
2023-03-23T21:17:02.589Z,13.66
2023-03-23T21:20:11.818Z,13.62
2023-03-23T21:23:17.933Z,13.62
2023-03-23T21:26:30.716Z,13.51
2023-03-23T21:29:39.391Z,13.45
2023-03-23T21:32:46.226Z,13.34
2023-03-23T21:35:52.569Z,13.35
2023-03-23T21:39:02.447Z,13.29
2023-03-23T21:42:08.343Z,13.22
2023-03-23T21:45:21.501Z,13.28
2023-03-23T21:48:29.687Z,13.21
2023-03-23T21:51:36.403Z,13.22
2023-03-23T21:54:42.396Z,13.24
2023-03-23T21:57:49.268Z,13.19
2023-03-23T22:01:02.605Z,13.22
2023-03-23T22:04:10.494Z,13.18
2023-03-23T22:07:16.892Z,13.20
2023-03-23T22:10:24.349Z,13.28
2023-03-23T22:13:31.492Z,13.27
2023-03-23T22:16:41.359Z,13.29
2023-03-23T22:19:47.447Z,13.30
2023-03-23T22:22:54.492Z,13.28
2023-03-23T22:26:00.938Z,13.37
2023-03-23T22:29:11.538Z,13.36
2023-03-23T22:32:20.302Z,13.30
2023-03-23T22:35:27.524Z,13.36
2023-03-23T22:38:33.469Z,13.37
2023-03-23T22:41:44.093Z,13.31
2023-03-23T22:44:50.553Z,13.26
2023-03-23T22:48:00.933Z,13.28
2023-03-23T22:51:07.297Z,13.23
2023-03-23T22:54:14.970Z,13.20
2023-03-23T22:57:21.172Z,13.12
2023-03-23T23:00:28.730Z,13.05
2023-03-23T23:03:39.041Z,13.05
2023-03-23T23:06:45.907Z,13.02
2023-03-23T23:09:52.380Z,13.00
2023-03-23T23:12:59.315Z,13.01
2023-03-23T23:16:07.561Z,12.97
2023-03-23T23:19:18.127Z,13.04
2023-03-23T23:22:24.095Z,12.99
2023-03-23T23:25:31.940Z,13.00
2023-03-23T23:28:40.482Z,12.96
2023-03-23T23:31:47.680Z,12.97
2023-03-23T23:34:56.579Z,12.93
2023-03-23T23:38:03.949Z,12.88
2023-03-23T23:41:10.801Z,13.01
2023-03-23T23:44:18.050Z,13.05
2023-03-23T23:47:24.141Z,13.17
2023-03-23T23:50:33.744Z,13.25
2023-03-23T23:53:39.591Z,13.29
2023-03-23T23:56:46.427Z,13.28
2023-03-23T23:59:52.436Z,13.35
